createdAt,value
2022-12-20T00:00:31.050Z,3.06
2022-12-20T00:01:30.976Z,3.07
2022-12-20T00:02:31.080Z,3.09
2022-12-20T00:03:30.907Z,3.10
2022-12-20T00:04:30.876Z,3.10
2022-12-20T00:05:30.962Z,3.10
2022-12-20T00:06:30.899Z,3.12
2022-12-20T00:07:30.819Z,3.12
2022-12-20T00:08:30.817Z,3.10
2022-12-20T00:09:39.401Z,3.12
2022-12-20T00:10:30.817Z,3.09
2022-12-20T00:11:30.818Z,3.09
2022-12-20T00:12:30.746Z,3.07
2022-12-20T00:13:30.758Z,3.06
2022-12-20T00:14:30.796Z,3.07
2022-12-20T00:15:30.704Z,3.05
2022-12-20T00:17:05.993Z,3.05
2022-12-20T00:17:30.749Z,3.06
2022-12-20T00:18:30.641Z,3.06
2022-12-20T00:19:30.680Z,3.06
2022-12-20T00:20:30.653Z,3.07
2022-12-20T00:21:30.707Z,3.09
2022-12-20T00:22:30.650Z,3.09
2022-12-20T00:23:30.688Z,3.10
2022-12-20T00:24:30.626Z,3.10
2022-12-20T00:25:30.766Z,3.09
2022-12-20T00:26:30.811Z,3.09
2022-12-20T00:27:30.627Z,3.09
2022-12-20T00:28:30.686Z,3.10
2022-12-20T00:29:30.650Z,3.09
2022-12-20T00:30:30.678Z,3.07
2022-12-20T00:31:30.709Z,3.06
2022-12-20T00:32:30.597Z,3.05
2022-12-20T00:33:30.479Z,3.06
2022-12-20T00:34:30.485Z,3.06
2022-12-20T00:35:30.560Z,3.07
2022-12-20T00:36:30.490Z,3.07
2022-12-20T00:37:30.502Z,3.07
2022-12-20T00:38:30.580Z,3.09
2022-12-20T00:39:30.380Z,3.07
2022-12-20T00:40:30.360Z,3.07
2022-12-20T00:41:30.380Z,3.07
2022-12-20T00:42:30.335Z,3.07
2022-12-20T00:43:30.312Z,3.09
2022-12-20T00:44:30.363Z,3.10
2022-12-20T00:45:30.331Z,3.10
2022-12-20T00:46:30.391Z,3.10
2022-12-20T00:47:30.328Z,3.07
2022-12-20T00:48:30.254Z,3.06
2022-12-20T00:49:30.254Z,3.06
2022-12-20T00:50:30.402Z,3.07
2022-12-20T00:51:30.268Z,3.06
2022-12-20T00:52:30.196Z,3.05
2022-12-20T00:53:30.307Z,3.06
2022-12-20T00:54:30.204Z,3.06
2022-12-20T00:55:30.196Z,3.07
2022-12-20T00:56:30.246Z,3.07
2022-12-20T00:57:30.157Z,3.07
2022-12-20T00:58:30.111Z,3.10
2022-12-20T00:59:30.134Z,3.10
2022-12-20T01:00:30.121Z,3.10
2022-12-20T01:01:30.274Z,3.12
2022-12-20T01:02:30.327Z,3.13
2022-12-20T01:03:30.158Z,3.13
2022-12-20T01:04:30.048Z,3.15
2022-12-20T01:05:30.200Z,3.16
2022-12-20T01:06:30.157Z,3.20
2022-12-20T01:07:29.988Z,3.23
2022-12-20T01:08:30.019Z,3.21
2022-12-20T01:09:29.983Z,3.21
2022-12-20T01:10:29.991Z,3.21
2022-12-20T01:11:29.977Z,3.21
2022-12-20T01:12:29.936Z,3.21
2022-12-20T01:13:29.983Z,3.20
2022-12-20T01:14:32.135Z,3.20
2022-12-20T01:15:30.058Z,3.20
2022-12-20T01:16:29.993Z,3.18
2022-12-20T01:17:30.111Z,3.20
2022-12-20T01:18:29.867Z,3.20
2022-12-20T01:19:29.873Z,3.18
2022-12-20T01:20:30.149Z,3.18
2022-12-20T01:21:29.831Z,3.20
2022-12-20T01:22:29.795Z,3.18
2022-12-20T01:23:30.026Z,3.16
2022-12-20T01:24:29.820Z,3.16
2022-12-20T01:25:29.810Z,3.18
2022-12-20T01:26:43.339Z,3.20
2022-12-20T01:27:30.767Z,3.20
2022-12-20T01:28:29.704Z,3.18
2022-12-20T01:29:44.525Z,3.15
2022-12-20T01:30:30.689Z,3.16
2022-12-20T01:31:29.707Z,3.15
2022-12-20T01:33:39.620Z,3.15
2022-12-20T01:34:39.571Z,3.13
2022-12-20T01:35:39.667Z,3.13
2022-12-20T01:36:39.536Z,3.13
2022-12-20T01:37:39.508Z,3.16
2022-12-20T01:38:39.547Z,3.15
2022-12-20T01:39:39.499Z,3.18
2022-12-20T01:40:39.540Z,3.18
2022-12-20T01:41:39.516Z,3.18
2022-12-20T01:42:39.468Z,3.20
2022-12-20T01:43:39.428Z,3.21
2022-12-20T01:44:39.600Z,3.21
2022-12-20T01:45:39.416Z,3.20
2022-12-20T01:46:39.418Z,3.18
2022-12-20T01:47:39.439Z,3.13
2022-12-20T01:48:39.388Z,3.12
2022-12-20T01:49:39.337Z,3.10
2022-12-20T01:50:39.383Z,3.09
2022-12-20T01:51:39.358Z,3.09
2022-12-20T01:52:39.341Z,3.09
2022-12-20T01:53:39.388Z,3.07
2022-12-20T01:54:39.311Z,3.09
2022-12-20T01:55:39.282Z,3.10
2022-12-20T01:56:39.285Z,3.12
2022-12-20T01:57:39.259Z,3.12
2022-12-20T01:58:39.347Z,3.13
2022-12-20T01:59:40.306Z,3.15
2022-12-20T02:00:39.229Z,3.12
2022-12-20T02:01:39.398Z,3.12
2022-12-20T02:03:00.422Z,3.13
2022-12-20T02:03:39.199Z,3.13
2022-12-20T02:04:39.180Z,3.13
2022-12-20T02:05:39.396Z,3.13
2022-12-20T02:06:39.106Z,3.16
2022-12-20T02:07:39.210Z,3.18
2022-12-20T02:08:39.323Z,3.18
2022-12-20T02:09:39.106Z,3.20
2022-12-20T02:10:39.091Z,3.20
2022-12-20T02:11:39.300Z,3.21
2022-12-20T02:12:39.090Z,3.21
2022-12-20T02:13:39.126Z,3.23
2022-12-20T02:14:39.322Z,3.20
2022-12-20T02:15:40.053Z,3.16
2022-12-20T02:16:39.052Z,3.13
2022-12-20T02:17:38.983Z,3.15
2022-12-20T02:18:48.404Z,3.15
2022-12-20T02:19:39.992Z,3.12
2022-12-20T02:20:38.984Z,3.12
2022-12-20T02:21:39.316Z,3.12
2022-12-20T02:22:38.962Z,3.12
2022-12-20T02:23:38.883Z,3.13
2022-12-20T02:24:38.876Z,3.12
2022-12-20T02:25:39.004Z,3.09
2022-12-20T02:26:38.916Z,3.07
2022-12-20T02:27:39.033Z,3.07
2022-12-20T02:28:38.938Z,3.03
2022-12-20T02:29:38.856Z,3.03
2022-12-20T02:30:38.900Z,3.03
2022-12-20T02:31:38.941Z,3.03
2022-12-20T02:32:38.842Z,3.03
2022-12-20T02:33:38.820Z,3.03
2022-12-20T02:34:38.763Z,3.05
2022-12-20T02:35:38.755Z,3.07
2022-12-20T02:36:38.703Z,3.07
2022-12-20T02:37:38.722Z,3.07
2022-12-20T02:38:38.994Z,3.06
2022-12-20T02:39:38.699Z,3.03
2022-12-20T02:40:38.661Z,3.03
2022-12-20T02:41:38.659Z,3.05
2022-12-20T02:42:38.740Z,3.06
2022-12-20T02:43:38.598Z,3.06
2022-12-20T02:44:38.582Z,3.07
2022-12-20T02:45:38.918Z,3.06
2022-12-20T02:46:38.604Z,3.07
2022-12-20T02:47:38.541Z,3.07
2022-12-20T02:48:38.578Z,3.07
2022-12-20T02:49:38.630Z,3.09
2022-12-20T02:50:38.513Z,3.10
2022-12-20T02:51:38.550Z,3.12
2022-12-20T02:52:38.584Z,3.09
2022-12-20T02:53:38.459Z,3.09
2022-12-20T02:54:38.495Z,3.10
2022-12-20T02:55:38.481Z,3.09
2022-12-20T02:56:38.461Z,3.06
2022-12-20T02:57:38.426Z,3.03
2022-12-20T02:58:38.426Z,3.02
2022-12-20T02:59:38.389Z,3.02
2022-12-20T03:00:38.442Z,3.02
2022-12-20T03:01:38.559Z,3.00
2022-12-20T03:02:38.689Z,2.97
2022-12-20T03:03:38.400Z,2.97
2022-12-20T03:04:38.329Z,2.95
2022-12-20T03:05:38.335Z,2.95
2022-12-20T03:06:38.333Z,2.97
2022-12-20T03:07:38.296Z,2.97
2022-12-20T03:08:38.346Z,2.95
2022-12-20T03:09:38.250Z,2.98
2022-12-20T03:10:38.245Z,2.97
2022-12-20T03:11:38.290Z,2.97
2022-12-20T03:12:38.247Z,2.97
2022-12-20T03:13:38.259Z,2.97
2022-12-20T03:14:38.267Z,2.95
2022-12-20T03:15:38.227Z,2.97
2022-12-20T03:16:38.221Z,2.97
2022-12-20T03:17:38.227Z,2.98
2022-12-20T03:18:38.147Z,3.02
2022-12-20T03:19:38.224Z,3.02
2022-12-20T03:20:38.117Z,3.03
2022-12-20T03:21:38.100Z,3.03
2022-12-20T03:22:38.104Z,3.05
2022-12-20T03:23:38.136Z,3.07
2022-12-20T03:24:38.048Z,3.10
2022-12-20T03:25:38.065Z,3.13
2022-12-20T03:26:38.067Z,3.10
2022-12-20T03:27:38.076Z,3.07
2022-12-20T03:28:38.010Z,3.05
2022-12-20T03:29:38.014Z,3.03
2022-12-20T03:30:38.051Z,3.02
2022-12-20T03:31:38.048Z,3.00
2022-12-20T03:32:37.988Z,2.98
2022-12-20T03:33:37.970Z,2.95
2022-12-20T03:34:37.923Z,2.95
2022-12-20T03:35:37.935Z,2.97
2022-12-20T03:36:37.903Z,3.00
2022-12-20T03:37:37.914Z,3.00
2022-12-20T03:38:37.909Z,3.00
2022-12-20T03:39:37.891Z,3.00
2022-12-20T03:40:37.895Z,3.03
2022-12-20T03:41:37.875Z,3.03
2022-12-20T03:42:37.822Z,3.03
2022-12-20T03:43:37.840Z,3.03
2022-12-20T03:44:37.970Z,3.05
2022-12-20T03:45:37.782Z,3.07
2022-12-20T03:46:37.890Z,3.07
2022-12-20T03:47:37.838Z,3.09
2022-12-20T03:48:37.773Z,3.09
2022-12-20T03:49:37.794Z,3.07
2022-12-20T03:50:37.912Z,3.06
2022-12-20T03:51:37.817Z,3.09
2022-12-20T03:52:37.774Z,3.09
2022-12-20T03:53:37.982Z,3.10
2022-12-20T03:54:37.733Z,3.10
2022-12-20T03:55:37.695Z,3.12
2022-12-20T03:56:38.909Z,3.13
2022-12-20T03:57:37.668Z,3.15
2022-12-20T03:58:37.913Z,3.18
2022-12-20T03:59:37.813Z,3.18
2022-12-20T04:00:37.701Z,3.15
2022-12-20T04:01:37.780Z,3.12
2022-12-20T04:02:37.987Z,3.09
2022-12-20T04:03:37.750Z,3.07
2022-12-20T04:04:37.810Z,3.09
2022-12-20T04:05:37.572Z,3.07
2022-12-20T04:06:37.566Z,3.06
2022-12-20T04:07:37.598Z,3.06
2022-12-20T04:08:37.556Z,3.06
2022-12-20T04:09:37.481Z,3.06
2022-12-20T04:10:37.563Z,3.07
2022-12-20T04:11:37.495Z,3.05
2022-12-20T04:12:37.535Z,3.03
2022-12-20T04:13:37.571Z,3.05
2022-12-20T04:14:37.473Z,3.02
2022-12-20T04:15:37.421Z,3.02
2022-12-20T04:16:37.586Z,3.02
2022-12-20T04:17:37.460Z,3.03
2022-12-20T04:18:37.427Z,3.00
2022-12-20T04:19:37.485Z,3.02
2022-12-20T04:20:37.346Z,3.02
2022-12-20T04:21:37.367Z,3.03
2022-12-20T04:22:37.461Z,3.05
2022-12-20T04:23:37.312Z,3.06
2022-12-20T04:24:37.298Z,3.03
2022-12-20T04:25:37.349Z,3.05
2022-12-20T04:26:37.324Z,3.05
2022-12-20T04:27:37.294Z,3.06
2022-12-20T04:28:37.301Z,3.07
2022-12-20T04:29:37.221Z,3.07
2022-12-20T04:30:37.230Z,3.06
2022-12-20T04:31:37.622Z,3.05
2022-12-20T04:32:37.182Z,3.05
2022-12-20T04:33:37.198Z,3.06
2022-12-20T04:34:57.417Z,3.07
2022-12-20T04:35:38.192Z,3.09
2022-12-20T04:36:37.165Z,3.10
2022-12-20T04:37:37.151Z,3.12
2022-12-20T04:38:37.152Z,3.12
2022-12-20T04:39:37.122Z,3.13
2022-12-20T04:40:37.089Z,3.15
2022-12-20T04:41:37.170Z,3.15
2022-12-20T04:42:37.136Z,3.20
2022-12-20T04:43:37.065Z,3.23
2022-12-20T04:44:37.079Z,3.24
2022-12-20T04:45:37.101Z,3.23
2022-12-20T04:46:37.069Z,3.23
2022-12-20T04:47:37.049Z,3.21
2022-12-20T04:48:55.634Z,3.21
2022-12-20T04:49:37.984Z,3.24
2022-12-20T04:50:37.049Z,3.24
2022-12-20T04:51:36.941Z,3.24
2022-12-20T04:52:40.844Z,3.23
2022-12-20T04:53:38.081Z,3.21
2022-12-20T04:54:36.891Z,3.20
2022-12-20T04:55:36.909Z,3.20
2022-12-20T04:56:36.937Z,3.21
2022-12-20T04:57:36.849Z,3.21
2022-12-20T04:58:36.851Z,3.23
2022-12-20T04:59:36.907Z,3.23
2022-12-20T05:00:36.799Z,3.24
2022-12-20T05:01:36.872Z,3.23
2022-12-20T05:02:37.078Z,3.21
2022-12-20T05:03:36.847Z,3.21
2022-12-20T05:04:37.792Z,3.23
2022-12-20T05:05:36.748Z,3.23
2022-12-20T05:06:36.757Z,3.23
2022-12-20T05:07:36.804Z,3.24
2022-12-20T05:08:36.708Z,3.25
2022-12-20T05:09:36.677Z,3.25
2022-12-20T05:10:36.720Z,3.24
2022-12-20T05:11:36.689Z,3.27
2022-12-20T05:12:36.643Z,3.25
2022-12-20T05:13:36.733Z,3.27
2022-12-20T05:14:36.626Z,3.28
2022-12-20T05:15:36.598Z,3.28
2022-12-20T05:16:36.696Z,3.28
2022-12-20T05:17:36.591Z,3.27
2022-12-20T05:18:36.690Z,3.27
2022-12-20T05:19:36.627Z,3.27
2022-12-20T05:20:36.536Z,3.27
2022-12-20T05:21:36.517Z,3.28
2022-12-20T05:22:36.552Z,3.28
2022-12-20T05:23:36.486Z,3.30
2022-12-20T05:24:36.478Z,3.28
2022-12-20T05:25:36.547Z,3.30
2022-12-20T05:26:36.475Z,3.33
2022-12-20T05:27:36.438Z,3.33
2022-12-20T05:28:36.472Z,3.33
2022-12-20T05:29:36.426Z,3.34
2022-12-20T05:30:36.415Z,3.34
2022-12-20T05:31:36.519Z,3.36
2022-12-20T05:32:36.368Z,3.36
2022-12-20T05:33:36.424Z,3.36
2022-12-20T05:34:36.390Z,3.34
2022-12-20T05:35:36.336Z,3.34
2022-12-20T05:36:36.316Z,3.36
2022-12-20T05:37:36.368Z,3.34
2022-12-20T05:38:36.308Z,3.34
2022-12-20T05:39:36.291Z,3.33
2022-12-20T05:40:36.399Z,3.33
2022-12-20T05:41:36.252Z,3.34
2022-12-20T05:42:36.248Z,3.36
2022-12-20T05:43:36.286Z,3.36
2022-12-20T05:44:36.213Z,3.40
2022-12-20T05:45:36.231Z,3.40
2022-12-20T05:46:36.329Z,3.42
2022-12-20T05:47:36.176Z,3.43
2022-12-20T05:48:36.218Z,3.43
2022-12-20T05:49:36.172Z,3.43
2022-12-20T05:50:36.123Z,3.46
2022-12-20T05:51:36.114Z,3.47
2022-12-20T05:52:36.133Z,3.50
2022-12-20T05:53:36.093Z,3.49
2022-12-20T05:54:36.074Z,3.50
2022-12-20T05:55:36.130Z,3.52
2022-12-20T05:56:36.042Z,3.52
2022-12-20T05:57:36.062Z,3.52
2022-12-20T05:58:36.066Z,3.52
2022-12-20T05:59:36.011Z,3.53
2022-12-20T06:00:36.013Z,3.53
2022-12-20T06:01:36.092Z,3.54
2022-12-20T06:02:36.162Z,3.54
2022-12-20T06:03:36.128Z,3.54
2022-12-20T06:04:36.084Z,3.54
2022-12-20T06:05:35.966Z,3.57
2022-12-20T06:06:35.951Z,3.54
2022-12-20T06:07:36.025Z,3.54
2022-12-20T06:08:35.872Z,3.57
2022-12-20T06:09:35.906Z,3.57
2022-12-20T06:10:36.128Z,3.57
2022-12-20T06:11:36.886Z,3.58
2022-12-20T06:12:35.874Z,3.58
2022-12-20T06:13:35.837Z,3.58
2022-12-20T06:14:35.979Z,3.60
2022-12-20T06:15:35.914Z,3.58
2022-12-20T06:16:35.889Z,3.57
2022-12-20T06:17:36.037Z,3.57
2022-12-20T06:18:35.819Z,3.53
2022-12-20T06:19:35.785Z,3.53
2022-12-20T06:20:54.171Z,3.52
2022-12-20T06:21:36.745Z,3.49
2022-12-20T06:22:35.791Z,3.49
2022-12-20T06:23:35.736Z,3.49
2022-12-20T06:24:35.739Z,3.49
2022-12-20T06:25:35.674Z,3.49
2022-12-20T06:26:35.647Z,3.47
2022-12-20T06:27:35.631Z,3.47
2022-12-20T06:28:35.663Z,3.49
2022-12-20T06:29:35.610Z,3.50
2022-12-20T06:31:45.126Z,3.52
2022-12-20T06:32:44.944Z,3.52
2022-12-20T06:33:45.175Z,3.57
2022-12-20T06:34:44.979Z,3.54
2022-12-20T06:35:44.947Z,3.54
2022-12-20T06:36:44.933Z,3.58
2022-12-20T06:37:44.957Z,3.57
2022-12-20T06:38:44.883Z,3.57
2022-12-20T06:39:44.930Z,3.54
2022-12-20T06:40:44.881Z,3.54
2022-12-20T06:41:44.803Z,3.52
2022-12-20T06:42:44.828Z,3.53
2022-12-20T06:43:44.831Z,3.50
2022-12-20T06:44:44.913Z,3.50
2022-12-20T06:45:44.877Z,3.49
2022-12-20T06:46:44.748Z,3.44
2022-12-20T06:47:44.949Z,3.46
2022-12-20T06:48:44.781Z,3.44
2022-12-20T06:49:44.705Z,3.44
2022-12-20T06:50:47.081Z,3.44
2022-12-20T06:51:45.731Z,3.43
2022-12-20T06:52:44.714Z,3.44
2022-12-20T06:54:13.470Z,3.44
2022-12-20T06:54:45.641Z,3.44
2022-12-20T06:55:44.666Z,3.46
2022-12-20T06:56:44.713Z,3.46
2022-12-20T06:57:44.705Z,3.43
2022-12-20T06:58:44.683Z,3.44
2022-12-20T06:59:44.651Z,3.43
2022-12-20T07:00:44.667Z,3.42
2022-12-20T07:01:44.742Z,3.40
2022-12-20T07:02:44.797Z,3.39
2022-12-20T07:03:44.558Z,3.36
2022-12-20T07:04:44.603Z,3.34
2022-12-20T07:05:44.725Z,3.33
2022-12-20T07:06:44.519Z,3.34
2022-12-20T07:07:53.769Z,3.31
2022-12-20T07:08:52.110Z,3.33
2022-12-20T07:09:44.531Z,3.34
2022-12-20T07:10:44.530Z,3.34
2022-12-20T07:11:44.622Z,3.39
2022-12-20T07:12:48.194Z,3.36
2022-12-20T07:13:44.463Z,3.34
2022-12-20T07:14:44.451Z,3.34
2022-12-20T07:15:44.370Z,3.34
2022-12-20T07:16:44.952Z,3.33
2022-12-20T07:17:44.567Z,3.33
2022-12-20T07:18:44.317Z,3.34
2022-12-20T07:19:50.243Z,3.31
2022-12-20T07:20:45.377Z,3.31
2022-12-20T07:21:44.357Z,3.34
2022-12-20T07:22:44.291Z,3.42
2022-12-20T07:23:44.485Z,3.43
2022-12-20T07:24:44.282Z,3.42
2022-12-20T07:25:44.279Z,3.40
2022-12-20T07:27:32.535Z,3.36
2022-12-20T07:27:45.257Z,3.36
2022-12-20T07:28:44.230Z,3.34
2022-12-20T07:29:44.172Z,3.36
2022-12-20T07:30:44.194Z,3.40
2022-12-20T07:31:44.266Z,3.40
2022-12-20T07:32:44.138Z,3.39
2022-12-20T07:33:44.200Z,3.39
2022-12-20T07:34:44.183Z,3.40
2022-12-20T07:35:45.556Z,3.40
2022-12-20T07:36:44.271Z,3.42
2022-12-20T07:37:44.121Z,3.47
2022-12-20T07:38:44.079Z,3.44
2022-12-20T07:39:44.201Z,3.44
2022-12-20T07:40:44.022Z,3.42
2022-12-20T07:41:44.047Z,3.42
2022-12-20T07:42:48.582Z,3.42
2022-12-20T07:43:45.216Z,3.40
2022-12-20T07:44:44.004Z,3.40
2022-12-20T07:45:44.098Z,3.42
2022-12-20T07:46:44.078Z,3.44
2022-12-20T07:47:44.135Z,3.47
2022-12-20T07:48:43.986Z,3.50
2022-12-20T07:49:44.091Z,3.52
2022-12-20T07:50:43.968Z,3.52
2022-12-20T07:51:43.931Z,3.53
2022-12-20T07:52:43.894Z,3.57
2022-12-20T07:53:44.057Z,3.58
2022-12-20T07:54:43.850Z,3.61
2022-12-20T07:55:43.857Z,3.64
2022-12-20T07:56:43.935Z,3.65
2022-12-20T07:57:43.837Z,3.68
2022-12-20T07:58:43.882Z,3.71
2022-12-20T07:59:44.039Z,3.75
2022-12-20T08:00:43.806Z,3.76
2022-12-20T08:01:43.970Z,3.78
2022-12-20T08:02:43.892Z,3.79
2022-12-20T08:03:44.091Z,3.79
2022-12-20T08:04:43.778Z,3.80
2022-12-20T08:05:43.794Z,3.80
2022-12-20T08:06:43.698Z,3.82
2022-12-20T08:07:43.798Z,3.82
2022-12-20T08:08:43.713Z,3.85
2022-12-20T08:09:43.666Z,3.86
2022-12-20T08:10:44.909Z,3.89
2022-12-20T08:11:43.654Z,3.90
2022-12-20T08:12:43.631Z,3.90
2022-12-20T08:13:46.574Z,3.90
2022-12-20T08:14:43.640Z,3.92
2022-12-20T08:15:43.623Z,3.92
2022-12-20T08:16:43.869Z,3.92
2022-12-20T08:17:43.539Z,3.89
2022-12-20T08:18:43.527Z,3.88
2022-12-20T08:19:43.666Z,3.86
2022-12-20T08:20:43.514Z,3.86
2022-12-20T08:21:43.578Z,3.85
2022-12-20T08:22:43.498Z,3.85
2022-12-20T08:23:43.567Z,3.89
2022-12-20T08:24:43.493Z,3.90
2022-12-20T08:25:43.443Z,3.92
2022-12-20T08:26:43.564Z,3.92
2022-12-20T08:27:43.467Z,3.96
2022-12-20T08:28:43.562Z,3.96
2022-12-20T08:29:43.375Z,3.97
2022-12-20T08:30:43.448Z,3.98
2022-12-20T08:31:49.822Z,3.97
2022-12-20T08:32:44.384Z,3.96
2022-12-20T08:33:43.406Z,3.97
2022-12-20T08:34:43.404Z,3.97
2022-12-20T08:35:43.282Z,3.97
2022-12-20T08:36:43.291Z,3.97
2022-12-20T08:37:43.324Z,4.00
2022-12-20T08:38:43.341Z,4.00
2022-12-20T08:39:43.240Z,4.01
2022-12-20T08:40:43.243Z,4.03
2022-12-20T08:41:43.223Z,4.06
2022-12-20T08:42:43.219Z,4.08
2022-12-20T08:43:43.178Z,4.14
2022-12-20T08:44:43.253Z,4.15
2022-12-20T08:45:43.208Z,4.19
2022-12-20T08:46:43.238Z,4.21
2022-12-20T08:47:43.287Z,4.22
2022-12-20T08:48:43.169Z,4.26
2022-12-20T08:49:47.568Z,4.29
2022-12-20T08:50:46.903Z,4.32
2022-12-20T08:51:43.184Z,4.34
2022-12-20T08:52:43.109Z,4.40
2022-12-20T08:53:43.173Z,4.42
2022-12-20T08:54:43.101Z,4.40
2022-12-20T08:55:43.030Z,4.42
2022-12-20T08:56:43.141Z,4.40
2022-12-20T08:57:50.032Z,4.40
2022-12-20T08:58:43.024Z,4.40
2022-12-20T08:59:43.103Z,4.43
2022-12-20T09:00:42.979Z,4.44
2022-12-20T09:01:43.259Z,4.44
2022-12-20T09:02:43.132Z,4.51
2022-12-20T09:03:43.191Z,4.51
2022-12-20T09:04:42.963Z,4.54
2022-12-20T09:05:42.912Z,4.54
2022-12-20T09:06:43.016Z,4.55
2022-12-20T09:07:42.987Z,4.59
2022-12-20T09:08:42.879Z,4.62
2022-12-20T09:09:42.930Z,4.69
2022-12-20T09:10:42.839Z,4.75
2022-12-20T09:11:42.829Z,4.80
2022-12-20T09:12:42.994Z,4.80
2022-12-20T09:13:44.366Z,4.83
2022-12-20T09:14:42.889Z,4.83
2022-12-20T09:15:42.810Z,4.79
2022-12-20T09:16:42.821Z,4.77
2022-12-20T09:17:42.775Z,4.73
2022-12-20T09:18:42.731Z,4.75
2022-12-20T09:19:51.610Z,4.76
2022-12-20T09:20:42.735Z,4.77
2022-12-20T09:21:42.680Z,4.80
2022-12-20T09:22:43.983Z,4.88
2022-12-20T09:23:43.289Z,4.92
2022-12-20T09:24:42.680Z,4.95
2022-12-20T09:25:42.745Z,4.98
2022-12-20T09:26:42.669Z,5.02
2022-12-20T09:27:42.599Z,5.05
2022-12-20T09:28:42.616Z,5.10
2022-12-20T09:29:42.569Z,5.13
2022-12-20T09:30:42.613Z,5.17
2022-12-20T09:31:42.735Z,5.23
2022-12-20T09:32:42.558Z,5.25
2022-12-20T09:33:42.584Z,5.30
2022-12-20T09:34:46.086Z,5.37
2022-12-20T09:35:42.547Z,5.41
2022-12-20T09:36:42.574Z,5.48
2022-12-20T09:37:42.748Z,5.53
2022-12-20T09:38:42.514Z,5.57
2022-12-20T09:39:42.484Z,5.63
2022-12-20T09:40:42.567Z,5.67
2022-12-20T09:41:42.451Z,5.64
2022-12-20T09:42:42.434Z,5.64
2022-12-20T09:43:42.761Z,5.66
2022-12-20T09:44:42.464Z,5.67
2022-12-20T09:45:42.372Z,5.67
2022-12-20T09:47:10.707Z,5.64
2022-12-20T09:47:42.336Z,5.59
2022-12-20T09:48:42.319Z,5.59
2022-12-20T09:49:42.397Z,5.59
2022-12-20T09:50:42.336Z,5.63
2022-12-20T09:51:42.343Z,5.64
2022-12-20T09:52:42.361Z,5.63
2022-12-20T09:53:42.296Z,5.66
2022-12-20T09:54:42.268Z,5.68
2022-12-20T09:55:42.361Z,5.74
2022-12-20T09:56:42.279Z,5.78
2022-12-20T09:57:42.204Z,5.78
2022-12-20T09:58:42.240Z,5.82
2022-12-20T09:59:47.501Z,5.85
2022-12-20T10:00:46.028Z,5.88
2022-12-20T10:01:43.358Z,5.88
2022-12-20T10:03:06.676Z,5.86
2022-12-20T10:03:43.481Z,5.86
2022-12-20T10:04:42.539Z,5.85
2022-12-20T10:05:42.346Z,5.85
2022-12-20T10:06:42.165Z,5.85
2022-12-20T10:07:42.333Z,5.88
2022-12-20T10:08:42.055Z,5.89
2022-12-20T10:09:42.056Z,5.92
2022-12-20T10:10:42.132Z,5.95
2022-12-20T10:11:49.864Z,5.98
2022-12-20T10:12:43.065Z,6.00
2022-12-20T10:13:42.114Z,6.03
2022-12-20T10:14:41.996Z,6.06
2022-12-20T10:15:42.861Z,6.11
2022-12-20T10:16:42.123Z,6.13
2022-12-20T10:17:41.965Z,6.18
2022-12-20T10:18:41.967Z,6.21
2022-12-20T10:19:42.037Z,6.25
2022-12-20T10:20:42.061Z,6.26
2022-12-20T10:21:41.898Z,6.21
2022-12-20T10:22:41.942Z,6.16
2022-12-20T10:23:41.893Z,6.11
2022-12-20T10:24:50.711Z,6.11
2022-12-20T10:25:41.872Z,6.11
2022-12-20T10:26:41.836Z,6.16
2022-12-20T10:27:41.816Z,6.18
2022-12-20T10:28:41.842Z,6.19
2022-12-20T10:29:41.801Z,6.21
2022-12-20T10:30:41.843Z,6.21
2022-12-20T10:31:42.022Z,6.21
2022-12-20T10:32:41.777Z,6.25
2022-12-20T10:33:41.780Z,6.25
2022-12-20T10:34:48.137Z,6.25
2022-12-20T10:35:42.848Z,6.25
2022-12-20T10:36:41.702Z,6.22
2022-12-20T10:38:06.120Z,6.21
2022-12-20T10:38:42.655Z,6.18
2022-12-20T10:39:41.744Z,6.19
2022-12-20T10:41:42.869Z,6.25
2022-12-20T10:42:41.634Z,6.26
2022-12-20T10:43:41.683Z,6.25
2022-12-20T10:44:41.623Z,6.28
2022-12-20T10:45:41.672Z,6.25
2022-12-20T10:46:41.745Z,6.21
2022-12-20T10:47:41.681Z,6.22
2022-12-20T10:48:41.530Z,6.25
2022-12-20T10:49:41.651Z,6.28
2022-12-20T10:50:41.562Z,6.30
2022-12-20T10:51:41.527Z,6.33
2022-12-20T10:52:44.040Z,6.35
2022-12-20T10:53:41.513Z,6.38
2022-12-20T10:54:41.493Z,6.36
2022-12-20T10:55:41.619Z,6.36
2022-12-20T10:56:41.539Z,6.32
2022-12-20T10:57:41.528Z,6.33
2022-12-20T10:58:41.569Z,6.33
2022-12-20T10:59:41.438Z,6.33
2022-12-20T11:00:41.453Z,6.32
2022-12-20T11:01:41.638Z,6.29
2022-12-20T11:02:42.873Z,6.26
2022-12-20T11:03:41.492Z,6.25
2022-12-20T11:04:41.537Z,6.25
2022-12-20T11:05:41.450Z,6.22
2022-12-20T11:06:41.307Z,6.22
2022-12-20T11:07:43.611Z,6.22
2022-12-20T11:08:51.111Z,6.26
2022-12-20T11:09:42.281Z,6.28
2022-12-20T11:10:41.241Z,6.32
2022-12-20T11:11:41.274Z,6.32
2022-12-20T11:12:58.136Z,6.32
2022-12-20T11:13:41.300Z,6.33
2022-12-20T11:14:41.536Z,6.35
2022-12-20T11:15:41.261Z,6.38
2022-12-20T11:16:41.208Z,6.43
2022-12-20T11:17:41.231Z,6.44
2022-12-20T11:18:41.160Z,6.48
2022-12-20T11:19:41.280Z,6.50
2022-12-20T11:20:41.184Z,6.53
2022-12-20T11:21:41.263Z,6.53
2022-12-20T11:22:41.094Z,6.48
2022-12-20T11:23:41.101Z,6.51
2022-12-20T11:24:41.191Z,6.51
2022-12-20T11:25:41.156Z,6.54
2022-12-20T11:26:41.019Z,6.59
2022-12-20T11:27:41.106Z,6.59
2022-12-20T11:28:41.064Z,6.62
2022-12-20T11:29:41.180Z,6.63
2022-12-20T11:30:40.977Z,6.65
2022-12-20T11:31:41.095Z,6.65
2022-12-20T11:32:48.170Z,6.65
2022-12-20T11:33:41.971Z,6.65
2022-12-20T11:34:40.993Z,6.65
2022-12-20T11:35:41.232Z,6.65
2022-12-20T11:36:41.074Z,6.68
2022-12-20T11:37:41.090Z,6.66
2022-12-20T11:38:41.052Z,6.68
2022-12-20T11:39:40.950Z,6.71
2022-12-20T11:40:40.906Z,6.69
2022-12-20T11:41:40.919Z,6.71
2022-12-20T11:43:01.857Z,6.66
2022-12-20T11:44:15.291Z,6.63
2022-12-20T11:44:50.092Z,6.63
2022-12-20T11:45:41.820Z,6.61
2022-12-20T11:46:40.882Z,6.59
2022-12-20T11:47:40.807Z,6.56
2022-12-20T11:48:40.731Z,6.56
2022-12-20T11:49:40.712Z,6.56
2022-12-20T11:50:40.816Z,6.54
2022-12-20T11:51:40.715Z,6.54
2022-12-20T11:52:55.623Z,6.59
2022-12-20T11:53:41.770Z,6.62
2022-12-20T11:54:40.679Z,6.63
2022-12-20T11:55:40.680Z,6.68
2022-12-20T11:56:44.694Z,6.71
2022-12-20T11:58:08.851Z,6.71
2022-12-20T11:58:44.784Z,6.71
2022-12-20T11:59:40.658Z,6.68
2022-12-20T12:00:40.629Z,6.68
2022-12-20T12:01:40.785Z,6.72
2022-12-20T12:02:40.782Z,6.76
2022-12-20T12:04:10.144Z,6.77
2022-12-20T12:04:41.650Z,6.80
2022-12-20T12:05:40.703Z,6.83
2022-12-20T12:06:40.609Z,6.86
2022-12-20T12:07:40.459Z,6.86
2022-12-20T12:08:40.605Z,6.84
2022-12-20T12:09:40.448Z,6.77
2022-12-20T12:10:40.559Z,6.73
2022-12-20T12:12:06.107Z,6.69
2022-12-20T12:12:41.466Z,6.68
2022-12-20T12:13:40.441Z,6.65
2022-12-20T12:14:40.481Z,6.65
2022-12-20T12:15:40.395Z,6.62
2022-12-20T12:16:40.547Z,6.59
2022-12-20T12:17:40.415Z,6.56
2022-12-20T12:18:40.393Z,6.56
2022-12-20T12:19:40.336Z,6.56
2022-12-20T12:20:40.375Z,6.59
2022-12-20T12:21:40.321Z,6.59
2022-12-20T12:22:40.328Z,6.62
2022-12-20T12:23:40.349Z,6.62
2022-12-20T12:24:40.283Z,6.63
2022-12-20T12:25:40.280Z,6.66
2022-12-20T12:26:40.292Z,6.68
2022-12-20T12:27:40.214Z,6.69
2022-12-20T12:28:40.243Z,6.71
2022-12-20T12:29:40.339Z,6.76
2022-12-20T12:30:40.207Z,6.77
2022-12-20T12:31:40.251Z,6.76
2022-12-20T12:32:42.807Z,6.76
2022-12-20T12:33:40.145Z,6.77
2022-12-20T12:34:40.166Z,6.79
2022-12-20T12:35:40.162Z,6.80
2022-12-20T12:36:40.117Z,6.81
2022-12-20T12:37:40.088Z,6.81
2022-12-20T12:38:40.104Z,6.83
2022-12-20T12:39:40.039Z,6.86
2022-12-20T12:40:40.047Z,6.89
2022-12-20T12:41:40.042Z,6.89
2022-12-20T12:42:39.991Z,6.90
2022-12-20T12:43:39.985Z,6.95
2022-12-20T12:44:40.007Z,6.98
2022-12-20T12:45:40.041Z,7.01
2022-12-20T12:46:40.077Z,7.05
2022-12-20T12:47:39.965Z,7.08
2022-12-20T12:48:39.943Z,7.13
2022-12-20T12:49:39.941Z,7.15
2022-12-20T12:50:39.911Z,7.15
2022-12-20T12:51:39.893Z,7.15
2022-12-20T12:52:39.896Z,7.13
2022-12-20T12:53:39.919Z,7.09
2022-12-20T12:54:39.850Z,7.08
2022-12-20T12:55:39.856Z,7.04
2022-12-20T12:56:45.164Z,7.04
2022-12-20T12:57:40.815Z,7.01
2022-12-20T12:58:46.525Z,7.02
2022-12-20T12:59:40.797Z,7.02
2022-12-20T13:00:39.753Z,7.01
2022-12-20T13:01:39.849Z,7.02
2022-12-20T13:02:39.942Z,7.04
2022-12-20T13:03:39.944Z,7.08
2022-12-20T13:04:39.714Z,7.13
2022-12-20T13:05:39.684Z,7.15
2022-12-20T13:06:39.694Z,7.19
2022-12-20T13:07:39.784Z,7.23
2022-12-20T13:08:39.672Z,7.24
2022-12-20T13:09:39.693Z,7.31
2022-12-20T13:10:39.656Z,7.34
2022-12-20T13:11:46.266Z,7.40
2022-12-20T13:12:40.769Z,7.44
2022-12-20T13:13:39.604Z,7.47
2022-12-20T13:14:39.669Z,7.50
2022-12-20T13:15:39.698Z,7.52
2022-12-20T13:17:10.794Z,7.55
2022-12-20T13:17:40.664Z,7.58
2022-12-20T13:18:39.535Z,7.60
2022-12-20T13:19:39.635Z,7.60
2022-12-20T13:20:39.599Z,7.58
2022-12-20T13:21:39.565Z,7.52